Time,TemperatureF,DewpointF,PressureIn,WindDirection,WindDirectionDegrees,WindSpeedMPH,WindSpeedGustMPH,Humidity,HourlyPrecipIn,Conditions,Clouds,dailyrainin,SoftwareType,DateUTC
2013-04-05 00:00:00,-999.9,-99.9,29.90,WNW,293,3.0,3.0,255,-99.99,,,0.00,Wunderground v.1.12,2013-04-05 04:00:00,
2013-04-05 00:02:00,-999.9,-99.9,29.90,WNW,293,3.0,3.0,255,-99.99,,,0.00,Wunderground v.1.12,2013-04-05 04:02:00,
2013-04-05 00:09:00,-999.9,-99.9,29.90,WNW,293,1.0,2.0,255,-99.99,,,0.00,Wunderground v.1.12,2013-04-05 04:09:00,
2013-04-05 00:15:00,-999.9,-99.9,29.89,WNW,293,2.0,2.0,255,-99.99,,,0.00,Wunderground v.1.12,2013-04-05 04:15:00,
2013-04-05 00:17:00,-999.9,-99.9,29.89,WNW,293,2.0,2.0,255,-99.99,,,0.00,Wunderground v.1.12,2013-04-05 04:17:00,
2013-04-05 00:22:00,-999.9,-99.9,29.89,WNW,293,1.0,2.0,255,-99.99,,,0.00,Wunderground v.1.12,2013-04-05 04:22:00,
2013-04-05 00:29:00,-999.9,-99.9,29.89,WNW,293,1.0,2.0,255,-99.99,,,0.00,Wunderground v.1.12,2013-04-05 04:29:00,
2013-04-05 00:35:00,-999.9,-99.9,29.89,WNW,293,0.0,1.0,255,-99.99,,,0.00,Wunderground v.1.12,2013-04-05 04:35:00,
2013-04-05 00:42:00,-999.9,-99.9,29.88,WNW,293,0.0,1.0,255,-99.99,,,0.00,Wunderground v.1.12,2013-04-05 04:42:00,
2013-04-05 00:49:00,-999.9,-99.9,29.88,WNW,293,0.0,1.0,255,-99.99,,,0.00,Wunderground v.1.12,2013-04-05 04:49:00,
2013-04-05 00:55:00,-999.9,-99.9,29.88,WNW,293,0.0,0.0,255,-99.99,,,0.00,Wunderground v.1.12,2013-04-05 04:55:00,
2013-04-05 01:01:00,-999.9,-99.9,29.89,WNW,293,2.0,2.0,255,-99.99,,,0.00,Wunderground v.1.12,2013-04-05 05:01:00,
2013-04-05 01:07:00,-999.9,-99.9,29.89,WNW,293,1.0,1.0,255,-99.99,,,0.00,Wunderground v.1.12,2013-04-05 05:07:00,
2013-04-05 01:12:00,-999.9,-99.9,29.88,WNW,293,0.0,1.0,255,-99.99,,,0.00,Wunderground v.1.12,2013-04-05 05:12:00,
2013-04-05 01:19:00,-999.9,-99.9,29.88,WNW,293,0.0,1.0,255,-99.99,,,0.00,Wunderground v.1.12,2013-04-05 05:19:00,
2013-04-05 01:24:00,-999.9,-99.9,29.88,WNW,293,0.0,0.0,255,-99.99,,,0.00,Wunderground v.1.12,2013-04-05 05:24:00,
2013-04-05 01:30:00,-999.9,-99.9,29.88,WNW,293,1.0,1.0,255,-99.99,,,0.00,Wunderground v.1.12,2013-04-05 05:30:00,
2013-04-05 01:35:00,-999.9,-99.9,29.88,WNW,293,0.0,0.0,255,-99.99,,,0.00,Wunderground v.1.12,2013-04-05 05:35:00,
2013-04-05 01:40:00,-999.9,-99.9,29.88,WNW,293,0.0,0.0,255,-99.99,,,0.00,Wunderground v.1.12,2013-04-05 05:40:00,
2013-04-05 01:45:00,-999.9,-99.9,29.88,WNW,293,0.0,0.0,255,-99.99,,,0.00,Wunderground v.1.12,2013-04-05 05:45:00,
2013-04-05 01:52:00,-999.9,-99.9,29.88,WNW,293,0.0,0.0,255,-99.99,,,0.00,Wunderground v.1.12,2013-04-05 05:52:00,
2013-04-05 01:59:00,-999.9,-99.9,29.88,WNW,293,1.0,1.0,255,-99.99,,,0.00,Wunderground v.1.12,2013-04-05 05:59:00,
2013-04-05 02:04:00,-999.9,-99.9,29.88,WNW,293,0.0,3.0,255,-99.99,,,0.00,Wunderground v.1.12,2013-04-05 06:04:00,
2013-04-05 02:10:00,-999.9,-99.9,29.88,WNW,293,0.0,0.0,255,-99.99,,,0.00,Wunderground v.1.12,2013-04-05 06:10:00,
2013-04-05 02:15:00,-999.9,-99.9,29.88,WNW,293,0.0,0.0,255,-99.99,,,0.00,Wunderground v.1.12,2013-04-05 06:15:00,
2013-04-05 02:20:00,-999.9,-99.9,29.88,WNW,293,0.0,0.0,255,-99.99,,,0.00,Wunderground v.1.12,2013-04-05 06:20:00,
2013-04-05 02:25:00,-999.9,-99.9,29.88,WNW,293,0.0,1.0,255,-99.99,,,0.00,Wunderground v.1.12,2013-04-05 06:25:00,
2013-04-05 02:30:00,-999.9,-99.9,29.89,WNW,293,2.0,2.0,255,-99.99,,,0.00,Wunderground v.1.12,2013-04-05 06:30:00,
2013-04-05 02:35:00,-999.9,-99.9,29.89,WNW,293,0.0,0.0,255,-99.99,,,0.00,Wunderground v.1.12,2013-04-05 06:35:00,
2013-04-05 02:40:00,-999.9,-99.9,29.89,WNW,293,0.0,0.0,255,-99.99,,,0.00,Wunderground v.1.12,2013-04-05 06:40:00,
2013-04-05 02:45:00,-999.9,-99.9,29.89,WNW,293,0.0,0.0,255,-99.99,,,0.00,Wunderground v.1.12,2013-04-05 06:45:00,
2013-04-05 02:50:00,-999.9,-99.9,29.89,WNW,293,0.0,0.0,255,-99.99,,,0.00,Wunderground v.1.12,2013-04-05 06:50:00,
2013-04-05 02:55:00,-999.9,-99.9,29.89,WNW,293,1.0,1.0,255,-99.99,,,0.00,Wunderground v.1.12,2013-04-05 06:55:00,
2013-04-05 03:00:00,-999.9,-99.9,29.89,WNW,293,0.0,1.0,255,-99.99,,,0.00,Wunderground v.1.12,2013-04-05 07:00:00,
2013-04-05 03:05:00,-999.9,-99.9,29.89,WNW,293,0.0,0.0,255,-99.99,,,0.00,Wunderground v.1.12,2013-04-05 07:05:00,
2013-04-05 03:10:00,-999.9,-99.9,29.89,WNW,293,0.0,0.0,255,-99.99,,,0.00,Wunderground v.1.12,2013-04-05 07:10:00,
2013-04-05 03:15:00,-999.9,-99.9,29.89,WNW,293,0.0,0.0,255,-99.99,,,0.00,Wunderground v.1.12,2013-04-05 07:15:00,
2013-04-05 03:20:00,-999.9,-99.9,29.89,WNW,293,0.0,0.0,255,-99.99,,,0.00,Wunderground v.1.12,2013-04-05 07:20:00,
2013-04-05 03:25:00,-999.9,-99.9,29.89,WNW,293,0.0,0.0,255,-99.99,,,0.00,Wunderground v.1.12,2013-04-05 07:25:00,
2013-04-05 03:30:00,-999.9,-99.9,29.89,WNW,293,0.0,0.0,255,-99.99,,,0.00,Wunderground v.1.12,2013-04-05 07:30:00,
2013-04-05 03:36:00,-999.9,-99.9,29.89,WNW,293,0.0,0.0,255,-99.99,,,0.00,Wunderground v.1.12,2013-04-05 07:36:00,
2013-04-05 03:41:00,-999.9,-99.9,29.89,WNW,293,0.0,0.0,255,-99.99,,,0.00,Wunderground v.1.12,2013-04-05 07:41:00,
2013-04-05 03:46:00,-999.9,-99.9,29.89,WNW,293,0.0,0.0,255,-99.99,,,0.00,Wunderground v.1.12,2013-04-05 07:46:00,
2013-04-05 03:51:00,-999.9,-99.9,29.89,WNW,293,0.0,2.0,255,-99.99,,,0.00,Wunderground v.1.12,2013-04-05 07:51:00,
2013-04-05 03:56:00,-999.9,-99.9,29.89,North,352,0.0,7.0,255,-99.99,,,0.00,Wunderground v.1.12,2013-04-05 07:56:00,
2013-04-05 04:02:00,-999.9,-99.9,29.89,NNW,342,1.0,6.0,255,-99.99,,,0.00,Wunderground v.1.12,2013-04-05 08:02:00,
2013-04-05 04:07:00,-999.9,-99.9,29.89,North,358,1.0,7.0,255,-99.99,,,0.00,Wunderground v.1.12,2013-04-05 08:07:00,
2013-04-05 04:12:00,-999.9,-99.9,29.90,NE,36,6.0,8.0,255,-99.99,,,0.00,Wunderground v.1.12,2013-04-05 08:12:00,
2013-04-05 04:17:00,-999.9,-99.9,29.90,NNE,25,3.0,10.0,255,-99.99,,,0.00,Wunderground v.1.12,2013-04-05 08:17:00,
2013-04-05 04:22:00,-999.9,-99.9,29.90,NE,44,3.0,11.0,255,-99.99,,,0.00,Wunderground v.1.12,2013-04-05 08:22:00,
2013-04-05 04:27:00,-999.9,-99.9,29.91,NNE,33,9.0,10.0,255,-99.99,,,0.00,Wunderground v.1.12,2013-04-05 08:27:00,
2013-04-05 04:32:00,-999.9,-99.9,29.91,NNE,25,7.0,9.0,255,-99.99,,,0.00,Wunderground v.1.12,2013-04-05 08:32:00,
2013-04-05 04:37:00,-999.9,-99.9,29.91,ENE,59,9.0,12.0,255,-99.99,,,0.00,Wunderground v.1.12,2013-04-05 08:37:00,
2013-04-05 04:42:00,-999.9,-99.9,29.92,NE,47,4.0,12.0,255,-99.99,,,0.00,Wunderground v.1.12,2013-04-05 08:42:00,
2013-04-05 04:47:00,-999.9,-99.9,29.92,NNE,29,5.0,12.0,255,-99.99,,,0.00,Wunderground v.1.12,2013-04-05 08:47:00,
2013-04-05 04:52:00,-999.9,-99.9,29.92,NNE,28,6.0,11.0,255,-99.99,,,0.00,Wunderground v.1.12,2013-04-05 08:52:00,
2013-04-05 04:57:00,-999.9,-99.9,29.93,NE,45,4.0,10.0,255,-99.99,,,0.00,Wunderground v.1.12,2013-04-05 08:57:00,
2013-04-05 05:02:00,-999.9,-99.9,29.93,NNE,14,13.0,20.0,255,-99.99,,,0.00,Wunderground v.1.12,2013-04-05 09:02:00,
2013-04-05 05:07:00,-999.9,-99.9,29.93,NNE,19,6.0,14.0,255,-99.99,,,0.00,Wunderground v.1.12,2013-04-05 09:07:00,
2013-04-05 05:12:00,-999.9,-99.9,29.94,NNE,31,8.0,13.0,255,-99.99,,,0.00,Wunderground v.1.12,2013-04-05 09:12:00,
2013-04-05 05:17:00,-999.9,-99.9,29.94,NNE,24,5.0,11.0,255,-99.99,,,0.00,Wunderground v.1.12,2013-04-05 09:17:00,
2013-04-05 05:22:00,-999.9,-99.9,29.94,NE,54,7.0,8.0,255,-99.99,,,0.00,Wunderground v.1.12,2013-04-05 09:22:00,
2013-04-05 05:27:00,-999.9,-99.9,29.94,NNE,19,14.0,14.0,255,-99.99,,,0.00,Wunderground v.1.12,2013-04-05 09:27:00,
2013-04-05 05:32:00,-999.9,-99.9,29.94,NNE,31,5.0,11.0,255,-99.99,,,0.00,Wunderground v.1.12,2013-04-05 09:32:00,
2013-04-05 05:39:00,-999.9,-99.9,29.94,NNE,31,4.0,9.0,255,-99.99,,,0.00,Wunderground v.1.12,2013-04-05 09:39:00,
2013-04-05 05:44:00,-999.9,-99.9,29.95,NE,36,5.0,8.0,255,-99.99,,,0.00,Wunderground v.1.12,2013-04-05 09:44:00,
2013-04-05 05:49:00,-999.9,-99.9,29.95,NNE,19,5.0,12.0,255,-99.99,,,0.00,Wunderground v.1.12,2013-04-05 09:49:00,
2013-04-05 05:55:00,-999.9,-99.9,29.95,NE,40,5.0,11.0,255,-99.99,,,0.00,Wunderground v.1.12,2013-04-05 09:55:00,
2013-04-05 06:00:00,-999.9,-99.9,29.96,NNE,21,3.0,6.0,255,-99.99,,,0.00,Wunderground v.1.12,2013-04-05 10:00:00,
2013-04-05 06:05:00,-999.9,-99.9,29.96,NNE,25,3.0,6.0,255,-99.99,,,0.00,Wunderground v.1.12,2013-04-05 10:05:00,
2013-04-05 06:10:00,-999.9,-99.9,29.96,NNE,25,4.0,5.0,255,-99.99,,,0.00,Wunderground v.1.12,2013-04-05 10:10:00,
2013-04-05 06:15:00,-999.9,-99.9,29.97,NNE,27,5.0,5.0,255,-99.99,,,0.00,Wunderground v.1.12,2013-04-05 10:15:00,
2013-04-05 06:20:00,-999.9,-99.9,29.97,NNE,24,3.0,4.0,255,-99.99,,,0.00,Wunderground v.1.12,2013-04-05 10:20:00,
2013-04-05 06:25:00,-999.9,-99.9,29.97,NE,35,5.0,5.0,255,-99.99,,,0.00,Wunderground v.1.12,2013-04-05 10:25:00,
2013-04-05 06:30:00,-999.9,-99.9,29.98,NNE,25,0.0,5.0,255,-99.99,,,0.00,Wunderground v.1.12,2013-04-05 10:30:00,
2013-04-05 06:35:00,-999.9,-99.9,29.98,NNE,14,4.0,5.0,255,-99.99,,,0.00,Wunderground v.1.12,2013-04-05 10:35:00,
2013-04-05 06:40:00,-999.9,-99.9,29.98,NNE,27,7.0,7.0,255,-99.99,,,0.00,Wunderground v.1.12,2013-04-05 10:40:00,
2013-04-05 06:45:00,-999.9,-99.9,29.99,NE,48,8.0,11.0,255,-99.99,,,0.00,Wunderground v.1.12,2013-04-05 10:45:00,
2013-04-05 06:50:00,-999.9,-99.9,29.99,NNE,19,6.0,9.0,255,-99.99,,,0.00,Wunderground v.1.12,2013-04-05 10:50:00,
2013-04-05 06:55:00,-999.9,-99.9,29.99,NE,35,5.0,9.0,255,-99.99,,,0.00,Wunderground v.1.12,2013-04-05 10:55:00,
2013-04-05 07:00:00,-999.9,-99.9,30.00,NE,37,5.0,7.0,255,-99.99,,,0.00,Wunderground v.1.12,2013-04-05 11:00:00,
2013-04-05 07:05:00,-999.9,-99.9,30.00,NNE,33,6.0,10.0,255,-99.99,,,0.00,Wunderground v.1.12,2013-04-05 11:05:00,
2013-04-05 07:10:00,-999.9,-99.9,30.00,NNE,32,4.0,7.0,255,-99.99,,,0.00,Wunderground v.1.12,2013-04-05 11:10:00,
2013-04-05 07:15:00,-999.9,-99.9,30.00,NE,39,2.0,5.0,255,-99.99,,,0.00,Wunderground v.1.12,2013-04-05 11:15:00,
2013-04-05 07:20:00,-999.9,-99.9,30.00,NE,44,4.0,6.0,255,-99.99,,,0.00,Wunderground v.1.12,2013-04-05 11:20:00,
2013-04-05 07:25:00,-999.9,-99.9,30.00,North,2,5.0,8.0,255,-99.99,,,0.00,Wunderground v.1.12,2013-04-05 11:25:00,
2013-04-05 07:30:00,-999.9,-99.9,30.02,NNE,14,7.0,7.0,255,-99.99,,,0.00,Wunderground v.1.12,2013-04-05 11:30:00,
2013-04-05 07:35:00,-999.9,-99.9,30.02,NE,38,3.0,7.0,255,-99.99,,,0.00,Wunderground v.1.12,2013-04-05 11:35:00,
2013-04-05 07:40:00,-999.9,-99.9,30.02,North,356,3.0,5.0,255,-99.99,,,0.00,Wunderground v.1.12,2013-04-05 11:40:00,
2013-04-05 07:45:00,-999.9,-99.9,30.03,NNW,331,7.0,9.0,255,-99.99,,,0.00,Wunderground v.1.12,2013-04-05 11:45:00,
2013-04-05 07:50:00,-999.9,-99.9,30.03,North,354,2.0,8.0,255,-99.99,,,0.00,Wunderground v.1.12,2013-04-05 11:50:00,
2013-04-05 07:55:00,-999.9,-99.9,30.03,NNW,342,6.0,6.0,255,-99.99,,,0.00,Wunderground v.1.12,2013-04-05 11:55:00,
2013-04-05 08:00:00,-999.9,-99.9,30.03,NNE,24,11.0,12.0,255,-99.99,,,0.00,Wunderground v.1.12,2013-04-05 12:00:00,
2013-04-05 08:05:00,-999.9,-99.9,30.03,NNE,14,4.0,6.0,255,-99.99,,,0.00,Wunderground v.1.12,2013-04-05 12:05:00,
2013-04-05 08:10:00,-999.9,-99.9,30.03,NE,38,5.0,8.0,255,-99.99,,,0.00,Wunderground v.1.12,2013-04-05 12:10:00,
2013-04-05 08:15:00,-999.9,-99.9,30.04,NNE,19,5.0,8.0,255,-99.99,,,0.00,Wunderground v.1.12,2013-04-05 12:15:00,
2013-04-05 08:20:00,-999.9,-99.9,30.04,North,358,4.0,6.0,255,-99.99,,,0.00,Wunderground v.1.12,2013-04-05 12:20:00,
2013-04-05 08:25:00,-999.9,-99.9,30.04,North,5,12.0,16.0,255,-99.99,,,0.00,Wunderground v.1.12,2013-04-05 12:25:00,
2013-04-05 08:31:00,-999.9,-99.9,30.05,North,8,4.0,7.0,255,-99.99,,,0.00,Wunderground v.1.12,2013-04-05 12:31:00,
2013-04-05 08:35:00,-999.9,-99.9,30.05,North,354,4.0,6.0,255,-99.99,,,0.00,Wunderground v.1.12,2013-04-05 12:35:00,
2013-04-05 08:40:00,-999.9,-99.9,30.05,NNE,16,6.0,15.0,255,-99.99,,,0.00,Wunderground v.1.12,2013-04-05 12:40:00,
2013-04-05 08:46:00,-999.9,-99.9,30.06,NE,37,5.0,11.0,255,-99.99,,,0.00,Wunderground v.1.12,2013-04-05 12:46:00,
2013-04-05 08:51:00,-999.9,-99.9,30.06,NNE,14,5.0,6.0,255,-99.99,,,0.00,Wunderground v.1.12,2013-04-05 12:51:00,
2013-04-05 08:57:00,-999.9,-99.9,30.06,NNW,342,5.0,9.0,255,-99.99,,,0.00,Wunderground v.1.12,2013-04-05 12:57:00,
2013-04-05 09:02:00,-999.9,-99.9,30.06,NNE,30,7.0,9.0,255,-99.99,,,0.00,Wunderground v.1.12,2013-04-05 13:02:00,
2013-04-05 09:07:00,-999.9,-99.9,30.06,North,350,3.0,8.0,255,-99.99,,,0.00,Wunderground v.1.12,2013-04-05 13:07:00,
2013-04-05 09:12:00,-999.9,-99.9,30.06,NNW,329,8.0,8.0,255,-99.99,,,0.00,Wunderground v.1.12,2013-04-05 13:12:00,
2013-04-05 09:17:00,-999.9,-99.9,30.06,NNW,331,4.0,8.0,255,-99.99,,,0.00,Wunderground v.1.12,2013-04-05 13:17:00,
2013-04-05 09:22:00,-999.9,-99.9,30.06,North,11,7.0,15.0,255,-99.99,,,0.00,Wunderground v.1.12,2013-04-05 13:22:00,
2013-04-05 09:27:00,-999.9,-99.9,30.06,North,8,7.0,9.0,255,-99.99,,,0.00,Wunderground v.1.12,2013-04-05 13:27:00,
2013-04-05 09:32:00,-999.9,-99.9,30.06,NNE,12,9.0,12.0,255,-99.99,,,0.00,Wunderground v.1.12,2013-04-05 13:32:00,
2013-04-05 09:37:00,-999.9,-99.9,30.06,NNW,333,10.0,10.0,255,-99.99,,,0.00,Wunderground v.1.12,2013-04-05 13:37:00,
2013-04-05 09:42:00,-999.9,-99.9,30.06,NNW,327,12.0,12.0,255,-99.99,,,0.00,Wunderground v.1.12,2013-04-05 13:42:00,
2013-04-05 09:47:00,-999.9,-99.9,30.06,NNW,347,3.0,11.0,255,-99.99,,,0.00,Wunderground v.1.12,2013-04-05 13:47:00,
2013-04-05 09:52:00,-999.9,-99.9,30.06,NNW,340,8.0,12.0,255,-99.99,,,0.00,Wunderground v.1.12,2013-04-05 13:52:00,
2013-04-05 09:57:00,40.6,19.8,30.06,NW,321,6.0,14.0,43,0.00,,,0.00,Wunderground v.1.12,2013-04-05 13:57:00,
2013-04-05 10:02:00,40.5,18.6,30.06,NNW,331,8.0,12.0,41,0.00,,,0.00,Wunderground v.1.12,2013-04-05 14:02:00,
2013-04-05 10:08:00,40.5,19.2,30.06,NNW,340,11.0,14.0,42,0.00,,,0.00,Wunderground v.1.12,2013-04-05 14:08:00,
2013-04-05 10:14:00,40.8,20.0,30.06,NNW,333,9.0,12.0,43,0.00,,,0.00,Wunderground v.1.12,2013-04-05 14:14:00,
2013-04-05 10:19:00,40.9,19.5,30.06,NNE,22,3.0,9.0,42,0.00,,,0.00,Wunderground v.1.12,2013-04-05 14:19:00,
2013-04-05 10:24:00,41.1,19.7,30.06,North,360,2.0,12.0,42,0.00,,,0.00,Wunderground v.1.12,2013-04-05 14:24:00,
2013-04-05 10:29:00,41.2,19.8,30.06,NNW,342,8.0,13.0,42,0.00,,,0.00,Wunderground v.1.12,2013-04-05 14:29:00,
2013-04-05 10:35:00,41.1,19.7,30.06,North,1,3.0,6.0,42,0.00,,,0.00,Wunderground v.1.12,2013-04-05 14:35:00,
2013-04-05 10:40:00,41.2,19.8,30.06,NW,322,4.0,5.0,42,0.00,,,0.00,Wunderground v.1.12,2013-04-05 14:40:00,
2013-04-05 10:45:00,41.8,20.4,30.06,NNW,330,11.0,13.0,42,0.00,,,0.00,Wunderground v.1.12,2013-04-05 14:45:00,
2013-04-05 10:50:00,41.9,19.3,30.06,NNW,340,6.0,8.0,40,0.00,,,0.00,Wunderground v.1.12,2013-04-05 14:50:00,
2013-04-05 10:55:00,42.1,18.3,30.06,NNW,340,2.0,8.0,38,0.00,,,0.00,Wunderground v.1.12,2013-04-05 14:55:00,
2013-04-05 11:00:00,42.5,18.6,30.07,NNW,336,2.0,7.0,38,0.00,,,0.00,Wunderground v.1.12,2013-04-05 15:00:00,
2013-04-05 11:06:00,42.6,18.7,30.07,NW,318,7.0,7.0,38,0.00,,,0.00,Wunderground v.1.12,2013-04-05 15:06:00,
2013-04-05 11:11:00,42.9,19.0,30.07,WNW,300,6.0,10.0,38,0.00,,,0.00,Wunderground v.1.12,2013-04-05 15:11:00,
2013-04-05 11:17:00,43.1,18.6,30.07,NNW,333,4.0,11.0,37,0.00,,,0.00,Wunderground v.1.12,2013-04-05 15:17:00,
2013-04-05 11:22:00,43.3,18.1,30.07,North,4,6.0,12.0,36,0.00,,,0.00,Wunderground v.1.12,2013-04-05 15:22:00,
2013-04-05 11:27:00,43.2,18.6,30.07,NW,308,15.0,15.0,37,0.00,,,0.00,Wunderground v.1.12,2013-04-05 15:27:00,
2013-04-05 11:33:00,43.3,15.4,30.07,North,357,6.0,13.0,32,0.00,,,0.00,Wunderground v.1.12,2013-04-05 15:33:00,
2013-04-05 11:38:00,43.6,16.3,30.07,NNE,33,11.0,14.0,33,0.00,,,0.00,Wunderground v.1.12,2013-04-05 15:38:00,
2013-04-05 11:42:00,43.9,15.9,30.08,North,356,1.0,10.0,32,0.00,,,0.00,Wunderground v.1.12,2013-04-05 15:42:00,
2013-04-05 11:47:00,44.2,16.9,30.08,WNW,303,7.0,17.0,33,0.00,,,0.00,Wunderground v.1.12,2013-04-05 15:47:00,
2013-04-05 11:52:00,44.6,18.6,30.08,NW,326,6.0,14.0,35,0.00,,,0.00,Wunderground v.1.12,2013-04-05 15:52:00,
2013-04-05 11:57:00,44.5,18.5,30.08,North,9,4.0,11.0,35,0.00,,,0.00,Wunderground v.1.12,2013-04-05 15:57:00,
2013-04-05 12:02:00,44.3,14.8,30.08,NW,322,4.0,12.0,30,0.00,,,0.00,Wunderground v.1.12,2013-04-05 16:02:00,
2013-04-05 12:07:00,44.9,15.3,30.08,WNW,295,10.0,11.0,30,0.00,,,0.00,Wunderground v.1.12,2013-04-05 16:07:00,
2013-04-05 12:14:00,45.1,16.2,30.08,WNW,301,6.0,12.0,31,0.00,,,0.00,Wunderground v.1.12,2013-04-05 16:14:00,
2013-04-05 12:19:00,45.5,15.0,30.08,North,1,13.0,19.0,29,0.00,,,0.00,Wunderground v.1.12,2013-04-05 16:19:00,
2013-04-05 12:24:00,44.6,15.0,30.08,NNE,26,2.0,15.0,30,0.00,,,0.00,Wunderground v.1.12,2013-04-05 16:24:00,
2013-04-05 12:29:00,45.4,14.9,30.08,NNE,31,10.0,13.0,29,0.00,,,0.00,Wunderground v.1.12,2013-04-05 16:29:00,
2013-04-05 12:35:00,46.2,15.6,30.08,NNE,12,2.0,13.0,29,0.00,,,0.00,Wunderground v.1.12,2013-04-05 16:35:00,
2013-04-05 12:40:00,46.5,14.3,30.08,WNW,288,6.0,7.0,27,0.00,,,0.00,Wunderground v.1.12,2013-04-05 16:40:00,
2013-04-05 12:45:00,46.2,16.4,30.08,NW,314,5.0,7.0,30,0.00,,,0.00,Wunderground v.1.12,2013-04-05 16:45:00,
2013-04-05 12:50:00,46.0,13.8,30.08,North,354,6.0,7.0,27,0.00,,,0.00,Wunderground v.1.12,2013-04-05 16:50:00,
2013-04-05 12:55:00,46.1,13.1,30.08,NW,309,5.0,7.0,26,0.00,,,0.00,Wunderground v.1.12,2013-04-05 16:55:00,
2013-04-05 13:00:00,47.0,15.5,30.08,WNW,291,8.0,12.0,28,0.00,,,0.00,Wunderground v.1.12,2013-04-05 17:00:00,
2013-04-05 13:05:00,46.7,14.4,30.08,NNW,335,4.0,8.0,27,0.00,,,0.00,Wunderground v.1.12,2013-04-05 17:05:00,
2013-04-05 13:10:00,46.7,13.6,30.08,North,6,12.0,12.0,26,0.00,,,0.00,Wunderground v.1.12,2013-04-05 17:10:00,
2013-04-05 13:15:00,46.4,14.2,30.07,NNW,328,7.0,13.0,27,0.00,,,0.00,Wunderground v.1.12,2013-04-05 17:15:00,
2013-04-05 13:20:00,46.5,15.1,30.07,NNW,333,5.0,8.0,28,0.00,,,0.00,Wunderground v.1.12,2013-04-05 17:20:00,
2013-04-05 13:25:00,47.0,15.5,30.07,NNW,336,9.0,9.0,28,0.00,,,0.00,Wunderground v.1.12,2013-04-05 17:25:00,
2013-04-05 13:30:00,46.7,15.3,30.07,NNW,345,5.0,8.0,28,0.00,,,0.00,Wunderground v.1.12,2013-04-05 17:30:00,
2013-04-05 13:35:00,47.0,14.7,30.07,NE,44,8.0,13.0,27,0.00,,,0.00,Wunderground v.1.12,2013-04-05 17:35:00,
2013-04-05 13:40:00,47.3,15.8,30.07,WNW,298,11.0,11.0,28,0.00,,,0.00,Wunderground v.1.12,2013-04-05 17:40:00,
2013-04-05 13:45:00,47.1,15.6,30.07,NNE,20,8.0,12.0,28,0.00,,,0.00,Wunderground v.1.12,2013-04-05 17:45:00,
2013-04-05 13:50:00,47.1,15.6,30.07,NW,318,17.0,17.0,28,0.00,,,0.00,Wunderground v.1.12,2013-04-05 17:50:00,
2013-04-05 13:55:00,46.8,13.7,30.07,NNW,346,7.0,10.0,26,0.00,,,0.00,Wunderground v.1.12,2013-04-05 17:55:00,
2013-04-05 14:00:00,46.8,15.4,30.07,NNW,331,6.0,12.0,28,0.00,,,0.00,Wunderground v.1.12,2013-04-05 18:00:00,
2013-04-05 14:05:00,48.0,15.6,30.07,NNW,339,9.0,18.0,27,0.00,,,0.00,Wunderground v.1.12,2013-04-05 18:05:00,
2013-04-05 14:10:00,48.0,15.6,30.07,NNE,17,7.0,9.0,27,0.00,,,0.00,Wunderground v.1.12,2013-04-05 18:10:00,
2013-04-05 14:15:00,47.9,15.5,30.07,North,4,6.0,11.0,27,0.00,,,0.00,Wunderground v.1.12,2013-04-05 18:15:00,
2013-04-05 14:20:00,47.9,16.3,30.07,NNW,338,6.0,9.0,28,0.00,,,0.00,Wunderground v.1.12,2013-04-05 18:20:00,
2013-04-05 14:25:00,48.0,16.4,30.07,NNE,31,3.0,8.0,28,0.00,,,0.00,Wunderground v.1.12,2013-04-05 18:25:00,
2013-04-05 14:30:00,48.9,17.2,30.07,NNW,338,10.0,10.0,28,0.00,,,0.00,Wunderground v.1.12,2013-04-05 18:30:00,
2013-04-05 14:35:00,48.5,16.0,30.07,North,349,7.0,13.0,27,0.00,,,0.00,Wunderground v.1.12,2013-04-05 18:35:00,
2013-04-05 14:40:00,47.9,16.3,30.07,North,3,10.0,12.0,28,0.00,,,0.00,Wunderground v.1.12,2013-04-05 18:40:00,
2013-04-05 14:46:00,47.1,14.8,30.07,NW,324,2.0,9.0,27,0.00,,,0.00,Wunderground v.1.12,2013-04-05 18:46:00,
2013-04-05 14:51:00,48.0,16.4,30.07,NW,314,12.0,12.0,28,0.00,,,0.00,Wunderground v.1.12,2013-04-05 18:51:00,
2013-04-05 14:56:00,47.9,15.5,30.07,NW,308,10.0,12.0,27,0.00,,,0.00,Wunderground v.1.12,2013-04-05 18:56:00,
2013-04-05 15:01:00,48.6,16.9,30.07,NNW,328,7.0,10.0,28,0.00,,,0.00,Wunderground v.1.12,2013-04-05 19:01:00,
2013-04-05 15:06:00,48.6,16.9,30.07,North,6,1.0,9.0,28,0.00,,,0.00,Wunderground v.1.12,2013-04-05 19:06:00,
2013-04-05 15:11:00,49.1,15.6,30.07,NNE,22,5.0,9.0,26,0.00,,,0.00,Wunderground v.1.12,2013-04-05 19:11:00,
2013-04-05 15:17:00,48.9,16.3,30.07,NNW,331,8.0,9.0,27,0.00,,,0.00,Wunderground v.1.12,2013-04-05 19:17:00,
2013-04-05 15:22:00,48.3,15.8,30.07,NNW,335,8.0,8.0,27,0.00,,,0.00,Wunderground v.1.12,2013-04-05 19:22:00,
2013-04-05 15:27:00,48.5,15.1,30.06,NW,324,5.0,14.0,26,0.00,,,0.00,Wunderground v.1.12,2013-04-05 19:27:00,
2013-04-05 15:32:00,48.8,17.1,30.06,NW,316,3.0,10.0,28,0.00,,,0.00,Wunderground v.1.12,2013-04-05 19:32:00,
2013-04-05 15:37:00,48.9,16.3,30.06,NNE,21,5.0,6.0,27,0.00,,,0.00,Wunderground v.1.12,2013-04-05 19:37:00,
2013-04-05 15:42:00,49.6,16.1,30.06,NW,320,4.0,11.0,26,0.00,,,0.00,Wunderground v.1.12,2013-04-05 19:42:00,
2013-04-05 15:47:00,49.2,16.6,30.06,NNW,346,3.0,9.0,27,0.00,,,0.00,Wunderground v.1.12,2013-04-05 19:47:00,
2013-04-05 15:52:00,48.9,15.5,30.06,NNW,331,3.0,14.0,26,0.00,,,0.00,Wunderground v.1.12,2013-04-05 19:52:00,
2013-04-05 15:57:00,48.8,16.2,30.05,NE,35,7.0,11.0,27,0.00,,,0.00,Wunderground v.1.12,2013-04-05 19:57:00,
2013-04-05 16:02:00,49.4,15.9,30.05,NNW,334,4.0,8.0,26,0.00,,,0.00,Wunderground v.1.12,2013-04-05 20:02:00,
2013-04-05 16:07:00,49.5,15.1,30.05,WNW,300,9.0,10.0,25,0.00,,,0.00,Wunderground v.1.12,2013-04-05 20:07:00,
2013-04-05 16:12:00,49.4,15.0,30.05,NW,306,9.0,11.0,25,0.00,,,0.00,Wunderground v.1.12,2013-04-05 20:12:00,
2013-04-05 16:17:00,49.4,15.0,30.05,NNE,19,5.0,11.0,25,0.00,,,0.00,Wunderground v.1.12,2013-04-05 20:17:00,
2013-04-05 16:22:00,49.5,16.0,30.05,NNW,337,7.0,10.0,26,0.00,,,0.00,Wunderground v.1.12,2013-04-05 20:22:00,
2013-04-05 16:27:00,48.9,15.5,30.05,NW,304,2.0,7.0,26,0.00,,,0.00,Wunderground v.1.12,2013-04-05 20:27:00,
2013-04-05 16:32:00,49.4,15.9,30.05,NE,49,4.0,10.0,26,0.00,,,0.00,Wunderground v.1.12,2013-04-05 20:32:00,
2013-04-05 16:37:00,49.8,14.4,30.05,NNW,338,3.0,12.0,24,0.00,,,0.00,Wunderground v.1.12,2013-04-05 20:37:00,
2013-04-05 16:42:00,49.6,15.2,30.05,NW,304,3.0,9.0,25,0.00,,,0.00,Wunderground v.1.12,2013-04-05 20:42:00,
2013-04-05 16:47:00,49.1,14.7,30.05,NNW,328,6.0,10.0,25,0.00,,,0.00,Wunderground v.1.12,2013-04-05 20:47:00,
2013-04-05 16:52:00,48.9,14.6,30.05,NNW,343,4.0,11.0,25,0.00,,,0.00,Wunderground v.1.12,2013-04-05 20:52:00,
2013-04-05 16:57:00,49.2,14.8,30.05,West,279,4.0,11.0,25,0.00,,,0.00,Wunderground v.1.12,2013-04-05 20:57:00,
2013-04-05 17:02:00,49.1,14.7,30.05,WNW,300,7.0,11.0,25,0.00,,,0.00,Wunderground v.1.12,2013-04-05 21:02:00,
2013-04-05 17:07:00,49.1,15.6,30.05,NW,306,4.0,7.0,26,0.00,,,0.00,Wunderground v.1.12,2013-04-05 21:07:00,
2013-04-05 17:12:00,49.1,14.7,30.05,North,354,0.0,8.0,25,0.00,,,0.00,Wunderground v.1.12,2013-04-05 21:12:00,
2013-04-05 17:17:00,49.1,15.6,30.05,NNW,327,10.0,10.0,26,0.00,,,0.00,Wunderground v.1.12,2013-04-05 21:17:00,
2013-04-05 17:22:00,49.2,15.7,30.05,NNW,329,5.0,7.0,26,0.00,,,0.00,Wunderground v.1.12,2013-04-05 21:22:00,
2013-04-05 17:27:00,49.5,16.0,30.05,NNW,341,6.0,9.0,26,0.00,,,0.00,Wunderground v.1.12,2013-04-05 21:27:00,
2013-04-05 17:32:00,49.4,15.0,30.05,WNW,294,8.0,8.0,25,0.00,,,0.00,Wunderground v.1.12,2013-04-05 21:32:00,
2013-04-05 17:38:00,49.2,14.8,30.05,North,2,5.0,11.0,25,0.00,,,0.00,Wunderground v.1.12,2013-04-05 21:38:00,
2013-04-05 17:43:00,48.6,13.4,30.06,NE,35,0.0,10.0,24,0.00,,,0.00,Wunderground v.1.12,2013-04-05 21:43:00,
2013-04-05 17:49:00,48.6,14.3,30.06,NW,309,5.0,9.0,25,0.00,,,0.00,Wunderground v.1.12,2013-04-05 21:49:00,
2013-04-05 17:54:00,48.8,15.4,30.06,NNW,337,4.0,9.0,26,0.00,,,0.00,Wunderground v.1.12,2013-04-05 21:54:00,
2013-04-05 17:59:00,48.6,14.3,30.07,NNW,347,5.0,12.0,25,0.00,,,0.00,Wunderground v.1.12,2013-04-05 21:59:00,
2013-04-05 18:04:00,48.3,16.7,30.07,North,358,5.0,8.0,28,0.00,,,0.00,Wunderground v.1.12,2013-04-05 22:04:00,
2013-04-05 18:09:00,48.0,14.7,30.07,North,6,4.0,10.0,26,0.00,,,0.00,Wunderground v.1.12,2013-04-05 22:09:00,
2013-04-05 18:14:00,48.2,14.9,30.07,North,9,2.0,7.0,26,0.00,,,0.00,Wunderground v.1.12,2013-04-05 22:14:00,
2013-04-05 18:19:00,48.2,14.9,30.07,NE,47,4.0,11.0,26,0.00,,,0.00,Wunderground v.1.12,2013-04-05 22:19:00,
2013-04-05 18:24:00,48.0,14.7,30.07,NNE,19,6.0,14.0,26,0.00,,,0.00,Wunderground v.1.12,2013-04-05 22:24:00,
2013-04-05 18:29:00,47.9,14.6,30.07,NNW,338,4.0,12.0,26,0.00,,,0.00,Wunderground v.1.12,2013-04-05 22:29:00,
2013-04-05 18:34:00,47.9,14.6,30.07,North,349,4.0,8.0,26,0.00,,,0.00,Wunderground v.1.12,2013-04-05 22:34:00,
2013-04-05 18:39:00,47.7,13.5,30.07,NNW,343,0.0,8.0,25,0.00,,,0.00,Wunderground v.1.12,2013-04-05 22:39:00,
2013-04-05 18:44:00,48.0,14.7,30.08,NW,306,3.0,7.0,26,0.00,,,0.00,Wunderground v.1.12,2013-04-05 22:44:00,
2013-04-05 18:49:00,48.0,14.7,30.08,NNW,341,3.0,8.0,26,0.00,,,0.00,Wunderground v.1.12,2013-04-05 22:49:00,
2013-04-05 18:55:00,47.9,14.6,30.08,NE,40,3.0,4.0,26,0.00,,,0.00,Wunderground v.1.12,2013-04-05 22:55:00,
2013-04-05 19:00:00,47.4,15.0,30.08,NNE,25,7.0,8.0,27,0.00,,,0.00,Wunderground v.1.12,2013-04-05 23:00:00,
2013-04-05 19:05:00,47.0,14.7,30.08,North,10,3.0,6.0,27,0.00,,,0.00,Wunderground v.1.12,2013-04-05 23:05:00,
2013-04-05 19:10:00,46.5,14.3,30.08,NNW,327,3.0,6.0,27,0.00,,,0.00,Wunderground v.1.12,2013-04-05 23:10:00,
2013-04-05 19:15:00,46.2,14.8,30.09,NW,314,2.0,4.0,28,0.00,,,0.00,Wunderground v.1.12,2013-04-05 23:15:00,
2013-04-05 19:20:00,46.1,13.9,30.09,NE,37,3.0,4.0,27,0.00,,,0.00,Wunderground v.1.12,2013-04-05 23:20:00,
2013-04-05 19:25:00,45.7,14.4,30.09,NE,51,3.0,5.0,28,0.00,,,0.00,Wunderground v.1.12,2013-04-05 23:25:00,
2013-04-05 19:30:00,45.4,14.9,30.09,NE,46,1.0,4.0,29,0.00,,,0.00,Wunderground v.1.12,2013-04-05 23:30:00,
2013-04-05 19:35:00,45.2,14.0,30.09,NNE,33,3.0,3.0,28,0.00,,,0.00,Wunderground v.1.12,2013-04-05 23:35:00,
2013-04-05 19:40:00,45.1,13.9,30.09,North,354,4.0,6.0,28,0.00,,,0.00,Wunderground v.1.12,2013-04-05 23:40:00,
2013-04-05 19:45:00,45.1,16.2,30.10,ENE,58,2.0,6.0,31,0.00,,,0.00,Wunderground v.1.12,2013-04-05 23:45:00,
2013-04-05 19:50:00,45.1,16.2,30.10,North,9,4.0,4.0,31,0.00,,,0.00,Wunderground v.1.12,2013-04-05 23:50:00,
2013-04-05 19:55:00,-999.9,-99.9,30.10,North,8,1.0,3.0,255,-99.99,,,0.00,Wunderground v.1.12,2013-04-05 23:55:00,
2013-04-05 20:00:00,-999.9,-99.9,30.10,NNE,32,3.0,3.0,255,-99.99,,,0.00,Wunderground v.1.12,2013-04-06 00:00:00,
2013-04-05 20:05:00,-999.9,-99.9,30.10,NE,52,0.0,3.0,255,-99.99,,,0.00,Wunderground v.1.12,2013-04-06 00:05:00,
2013-04-05 20:10:00,-999.9,-99.9,30.10,NE,52,0.0,3.0,255,-99.99,,,0.00,Wunderground v.1.12,2013-04-06 00:10:00,
2013-04-05 20:15:00,-999.9,-99.9,30.10,NE,52,1.0,5.0,255,-99.99,,,0.00,Wunderground v.1.12,2013-04-06 00:15:00,
2013-04-05 20:21:00,-999.9,-99.9,30.10,ENE,59,2.0,2.0,255,-99.99,,,0.00,Wunderground v.1.12,2013-04-06 00:21:00,
2013-04-05 20:26:00,-999.9,-99.9,30.10,ESE,105,8.0,10.0,255,-99.99,,,0.00,Wunderground v.1.12,2013-04-06 00:26:00,
2013-04-05 20:31:00,-999.9,-99.9,30.11,ESE,121,4.0,8.0,255,-99.99,,,0.00,Wunderground v.1.12,2013-04-06 00:31:00,
2013-04-05 20:35:00,-999.9,-99.9,30.11,SE,125,4.0,9.0,255,-99.99,,,0.00,Wunderground v.1.12,2013-04-06 00:35:00,
2013-04-05 20:40:00,-999.9,-99.9,30.11,ESE,121,3.0,5.0,255,-99.99,,,0.00,Wunderground v.1.12,2013-04-06 00:40:00,
2013-04-05 20:46:00,-999.9,-99.9,30.12,ESE,119,6.0,6.0,255,-99.99,,,0.00,Wunderground v.1.12,2013-04-06 00:46:00,
2013-04-05 20:51:00,-999.9,-99.9,30.12,ESE,116,4.0,6.0,255,-99.99,,,0.00,Wunderground v.1.12,2013-04-06 00:51:00,
2013-04-05 20:56:00,-999.9,-99.9,30.12,SE,144,4.0,8.0,255,-99.99,,,0.00,Wunderground v.1.12,2013-04-06 00:56:00,
2013-04-05 21:01:00,-999.9,-99.9,30.13,ESE,121,4.0,7.0,255,-99.99,,,0.00,Wunderground v.1.12,2013-04-06 01:01:00,
2013-04-05 21:06:00,-999.9,-99.9,30.13,ESE,102,7.0,8.0,255,-99.99,,,0.00,Wunderground v.1.12,2013-04-06 01:06:00,
2013-04-05 21:11:00,-999.9,-99.9,30.13,ESE,118,8.0,9.0,255,-99.99,,,0.00,Wunderground v.1.12,2013-04-06 01:11:00,
2013-04-05 21:17:00,-999.9,-99.9,30.13,SE,125,3.0,6.0,255,-99.99,,,0.00,Wunderground v.1.12,2013-04-06 01:17:00,
2013-04-05 21:22:00,-999.9,-99.9,30.13,ESE,121,1.0,5.0,255,-99.99,,,0.00,Wunderground v.1.12,2013-04-06 01:22:00,
2013-04-05 21:27:00,-999.9,-99.9,30.14,SE,130,2.0,5.0,255,-99.99,,,0.00,Wunderground v.1.12,2013-04-06 01:27:00,
2013-04-05 21:32:00,-999.9,-99.9,30.14,SE,130,6.0,12.0,255,-99.99,,,0.00,Wunderground v.1.12,2013-04-06 01:32:00,
2013-04-05 21:37:00,-999.9,-99.9,30.14,ESE,115,2.0,6.0,255,-99.99,,,0.00,Wunderground v.1.12,2013-04-06 01:37:00,
2013-04-05 21:43:00,-999.9,-99.9,30.15,SE,125,1.0,5.0,255,-99.99,,,0.00,Wunderground v.1.12,2013-04-06 01:43:00,
2013-04-05 21:48:00,-999.9,-99.9,30.15,ESE,112,3.0,7.0,255,-99.99,,,0.00,Wunderground v.1.12,2013-04-06 01:48:00,
2013-04-05 21:53:00,-999.9,-99.9,30.15,ESE,112,2.0,5.0,255,-99.99,,,0.00,Wunderground v.1.12,2013-04-06 01:53:00,
2013-04-05 21:58:00,-999.9,-99.9,30.15,SE,129,4.0,6.0,255,-99.99,,,0.00,Wunderground v.1.12,2013-04-06 01:58:00,
2013-04-05 22:04:00,-999.9,-99.9,30.15,SE,127,3.0,4.0,255,-99.99,,,0.00,Wunderground v.1.12,2013-04-06 02:04:00,
2013-04-05 22:09:00,-999.9,-99.9,30.15,SE,127,0.0,3.0,255,-99.99,,,0.00,Wunderground v.1.12,2013-04-06 02:09:00,
2013-04-05 22:15:00,-999.9,-99.9,30.16,SE,129,1.0,2.0,255,-99.99,,,0.00,Wunderground v.1.12,2013-04-06 02:15:00,
2013-04-05 22:20:00,-999.9,-99.9,30.16,SE,127,0.0,2.0,255,-99.99,,,0.00,Wunderground v.1.12,2013-04-06 02:20:00,
2013-04-05 22:25:00,-999.9,-99.9,30.16,SE,127,4.0,4.0,255,-99.99,,,0.00,Wunderground v.1.12,2013-04-06 02:25:00,
2013-04-05 22:30:00,-999.9,-99.9,30.16,SE,127,2.0,2.0,255,-99.99,,,0.00,Wunderground v.1.12,2013-04-06 02:30:00,
2013-04-05 22:35:00,-999.9,-99.9,30.16,SE,127,2.0,2.0,255,-99.99,,,0.00,Wunderground v.1.12,2013-04-06 02:35:00,
2013-04-05 22:40:00,-999.9,-99.9,30.16,SE,127,0.0,1.0,255,-99.99,,,0.00,Wunderground v.1.12,2013-04-06 02:40:00,
2013-04-05 22:45:00,-999.9,-99.9,30.16,SE,131,2.0,7.0,255,-99.99,,,0.00,Wunderground v.1.12,2013-04-06 02:45:00,
2013-04-05 22:51:00,-999.9,-99.9,30.16,SE,129,2.0,3.0,255,-99.99,,,0.00,Wunderground v.1.12,2013-04-06 02:51:00,
2013-04-05 22:56:00,-999.9,-99.9,30.16,SE,129,1.0,3.0,255,-99.99,,,0.00,Wunderground v.1.12,2013-04-06 02:56:00,
2013-04-05 23:01:00,-999.9,-99.9,30.16,SE,129,0.0,3.0,255,-99.99,,,0.00,Wunderground v.1.12,2013-04-06 03:01:00,
2013-04-05 23:06:00,-999.9,-99.9,30.16,SE,129,1.0,2.0,255,-99.99,,,0.00,Wunderground v.1.12,2013-04-06 03:06:00,
2013-04-05 23:11:00,-999.9,-99.9,30.16,SE,129,1.0,2.0,255,-99.99,,,0.00,Wunderground v.1.12,2013-04-06 03:11:00,
2013-04-05 23:16:00,-999.9,-99.9,30.16,SE,129,0.0,3.0,255,-99.99,,,0.00,Wunderground v.1.12,2013-04-06 03:16:00,
2013-04-05 23:21:00,-999.9,-99.9,30.16,SE,129,3.0,3.0,255,-99.99,,,0.00,Wunderground v.1.12,2013-04-06 03:21:00,
2013-04-05 23:26:00,-999.9,-99.9,30.16,SE,129,2.0,2.0,255,-99.99,,,0.00,Wunderground v.1.12,2013-04-06 03:26:00,
2013-04-05 23:31:00,-999.9,-99.9,30.16,SE,129,1.0,2.0,255,-99.99,,,0.00,Wunderground v.1.12,2013-04-06 03:31:00,
2013-04-05 23:36:00,-999.9,-99.9,30.16,SE,129,2.0,2.0,255,-99.99,,,0.00,Wunderground v.1.12,2013-04-06 03:36:00,
2013-04-05 23:41:00,-999.9,-99.9,30.16,SE,129,0.0,2.0,255,-99.99,,,0.00,Wunderground v.1.12,2013-04-06 03:41:00,
2013-04-05 23:47:00,-999.9,-99.9,30.16,SE,129,0.0,1.0,255,-99.99,,,0.00,Wunderground v.1.12,2013-04-06 03:47:00,
2013-04-05 23:53:00,-999.9,-99.9,30.16,SE,129,0.0,2.0,255,-99.99,,,0.00,Wunderground v.1.12,2013-04-06 03:53:00,
2013-04-05 23:58:00,-999.9,-99.9,30.16,SE,129,0.0,1.0,255,-99.99,,,0.00,Wunderground v.1.12,2013-04-06 03:58:00,